Portada
METAR-TAF:

METAR-TAF

Aeroports :

Base Naval de Rota

Rota, Espanya

latitud: 36-39N, longitud: 006-21W, altitud: 26 m

Observació

L'informe es va fer fa 21 minuts, a les 21:00 UTC
Vent 20 kt del Est/Sud-Est amb ràfegues de 30 kt
Temperatura 23°C
Humitat 50%
Pressió 1018 hPa
Visibilitat 10 km o més

METAR: LERT 262100Z AUTO 11020G30KT 9999 NCD 23/12 Q1018

Hora: 23:21 (21:21 UTC)

Pronòstic

L'informe es va fer fa 1 hora i 21 minuts, a les 20:00 UTC
Pronòstic vàlid del 26 a les 21 UTC al 27 a les 06 UTC
Vent 14 kt del Est/Sud-Est
Visibilitat 10 km o més
sense núvols per sota de 1500 mi sense presència de cumulonimbus.

TAF: LERT 262000Z 2621/2706 12014KT CAVOK

Observacions i pronòstics meteorològics de més de 4000 aeroports (METAR i TAF).

Les estacions disponibles són els punts grocs i vermells al mapa.

Posi el ratolí al punt desitjat per veure el nom de l'estació.

Feu clic per veure les observacions i els pronòstics meteorològics.

Per canviar el mapa: feu clic els botons verds amb una creu de color negre per apropar; al botó verd amb un guió per allunyar la imatge; o en les fletxes verdes per a mapes adjacents.


METAR-TAF: